sensor_id;sensor_type;location;lat;lon;timestamp;pressure;altitude;pressure_sealevel;temperature;humidity
58975;BME280;44751;52.236;5.178;2022-10-26T00:01:19;101288.38;;;10.02;100.00
58975;BME280;44751;52.236;5.178;2022-10-26T00:03:50;101276.09;;;10.16;100.00
58975;BME280;44751;52.236;5.178;2022-10-26T00:06:18;101277.97;;;10.24;100.00
58975;BME280;44751;52.236;5.178;2022-10-26T00:08:47;101278.84;;;10.33;100.00
58975;BME280;44751;52.236;5.178;2022-10-26T00:11:14;101273.25;;;10.34;100.00
58975;BME280;44751;52.236;5.178;2022-10-26T00:13:45;101266.34;;;10.40;100.00
58975;BME280;44751;52.236;5.178;2022-10-26T00:16:19;101268.72;;;10.35;100.00
58975;BME280;44751;52.236;5.178;2022-10-26T00:18:46;101263.03;;;10.46;100.00
58975;BME280;44751;52.236;5.178;2022-10-26T00:21:13;101262.81;;;10.40;100.00
58975;BME280;44751;52.236;5.178;2022-10-26T00:23:40;101263.16;;;10.37;100.00
58975;BME280;44751;52.236;5.178;2022-10-26T00:26:07;101257.28;;;10.41;100.00
58975;BME280;44751;52.236;5.178;2022-10-26T00:28:34;101261.81;;;10.41;100.00
58975;BME280;44751;52.236;5.178;2022-10-26T00:31:07;101260.78;;;10.42;100.00
58975;BME280;44751;52.236;5.178;2022-10-26T00:33:34;101254.03;;;10.38;100.00
58975;BME280;44751;52.236;5.178;2022-10-26T00:36:04;101254.56;;;10.41;100.00
58975;BME280;44751;52.236;5.178;2022-10-26T00:38:31;101241.56;;;10.37;100.00
58975;BME280;44751;52.236;5.178;2022-10-26T00:40:57;101234.34;;;10.37;100.00
58975;BME280;44751;52.236;5.178;2022-10-26T00:45:52;101233.97;;;10.32;100.00
58975;BME280;44751;52.236;5.178;2022-10-26T00:48:24;101227.75;;;10.40;100.00
58975;BME280;44751;52.236;5.178;2022-10-26T00:50:53;101226.91;;;10.39;100.00
58975;BME280;44751;52.236;5.178;2022-10-26T00:53:20;101241.41;;;10.38;100.00
58975;BME280;44751;52.236;5.178;2022-10-26T00:55:51;101231.97;;;10.42;100.00
58975;BME280;44751;52.236;5.178;2022-10-26T00:58:18;101225.56;;;10.43;100.00
58975;BME280;44751;52.236;5.178;2022-10-26T01:00:47;101230.28;;;10.41;100.00
58975;BME280;44751;52.236;5.178;2022-10-26T01:03:14;101229.28;;;10.42;100.00
58975;BME280;44751;52.236;5.178;2022-10-26T01:05:42;101217.97;;;10.47;100.00
58975;BME280;44751;52.236;5.178;2022-10-26T01:08:09;101220.88;;;10.45;100.00
58975;BME280;44751;52.236;5.178;2022-10-26T01:10:39;101219.31;;;10.43;100.00
58975;BME280;44751;52.236;5.178;2022-10-26T01:13:07;101206.50;;;10.37;100.00
58975;BME280;44751;52.236;5.178;2022-10-26T01:18:50;101212.56;;;10.39;100.00
58975;BME280;44751;52.236;5.178;2022-10-26T01:21:39;101198.25;;;10.30;100.00
58975;BME280;44751;52.236;5.178;2022-10-26T01:27:21;101199.28;;;10.37;100.00
58975;BME280;44751;52.236;5.178;2022-10-26T01:30:13;101199.78;;;10.32;100.00
58975;BME280;44751;52.236;5.178;2022-10-26T01:41:31;101186.78;;;10.53;100.00
58975;BME280;44751;52.236;5.178;2022-10-26T01:44:02;101180.91;;;10.49;100.00
58975;BME280;44751;52.236;5.178;2022-10-26T01:46:35;101191.50;;;10.42;100.00
58975;BME280;44751;52.236;5.178;2022-10-26T01:49:07;101179.22;;;10.48;100.00
58975;BME280;44751;52.236;5.178;2022-10-26T01:51:41;101169.59;;;10.37;100.00
58975;BME280;44751;52.236;5.178;2022-10-26T01:54:09;101176.34;;;10.41;100.00
58975;BME280;44751;52.236;5.178;2022-10-26T01:56:37;101171.97;;;10.49;100.00
58975;BME280;44751;52.236;5.178;2022-10-26T02:04:34;101163.69;;;10.50;100.00
58975;BME280;44751;52.236;5.178;2022-10-26T02:07:24;101164.06;;;10.55;100.00
58975;BME280;44751;52.236;5.178;2022-10-26T02:15:33;101158.28;;;10.58;100.00
58975;BME280;44751;52.236;5.178;2022-10-26T02:18:18;101157.63;;;10.65;100.00
58975;BME280;44751;52.236;5.178;2022-10-26T02:20:53;101155.25;;;10.62;100.00
58975;BME280;44751;52.236;5.178;2022-10-26T02:23:22;101160.50;;;10.55;100.00
58975;BME280;44751;52.236;5.178;2022-10-26T02:25:54;101147.50;;;10.58;100.00
58975;BME280;44751;52.236;5.178;2022-10-26T02:28:28;101145.81;;;10.66;100.00
58975;BME280;44751;52.236;5.178;2022-10-26T02:30:58;101151.72;;;10.69;100.00
58975;BME280;44751;52.236;5.178;2022-10-26T02:33:30;101141.09;;;10.68;100.00
58975;BME280;44751;52.236;5.178;2022-10-26T02:36:00;101134.31;;;10.72;100.00
58975;BME280;44751;52.236;5.178;2022-10-26T02:38:32;101138.53;;;10.75;100.00
58975;BME280;44751;52.236;5.178;2022-10-26T02:41:01;101133.44;;;10.80;100.00
58975;BME280;44751;52.236;5.178;2022-10-26T02:43:32;101123.38;;;10.74;100.00
58975;BME280;44751;52.236;5.178;2022-10-26T02:46:07;101130.88;;;10.87;100.00
58975;BME280;44751;52.236;5.178;2022-10-26T02:48:36;101133.09;;;10.83;100.00
58975;BME280;44751;52.236;5.178;2022-10-26T02:51:10;101127.72;;;10.83;100.00
58975;BME280;44751;52.236;5.178;2022-10-26T02:54:08;101123.00;;;10.77;100.00
58975;BME280;44751;52.236;5.178;2022-10-26T02:56:51;101127.88;;;10.81;100.00
58975;BME280;44751;52.236;5.178;2022-10-26T02:59:21;101129.38;;;10.84;100.00
58975;BME280;44751;52.236;5.178;2022-10-26T03:01:51;101117.56;;;10.85;100.00
58975;BME280;44751;52.236;5.178;2022-10-26T03:04:18;101119.56;;;10.91;100.00
58975;BME280;44751;52.236;5.178;2022-10-26T03:06:52;101111.81;;;10.88;100.00
58975;BME280;44751;52.236;5.178;2022-10-26T03:09:19;101123.56;;;11.04;100.00
58975;BME280;44751;52.236;5.178;2022-10-26T03:11:46;101121.94;;;10.94;100.00
58975;BME280;44751;52.236;5.178;2022-10-26T03:14:16;101112.47;;;10.98;100.00
58975;BME280;44751;52.236;5.178;2022-10-26T03:16:42;101113.84;;;10.94;100.00
58975;BME280;44751;52.236;5.178;2022-10-26T03:19:09;101113.31;;;10.91;100.00
58975;BME280;44751;52.236;5.178;2022-10-26T03:21:36;101111.97;;;10.95;100.00
58975;BME280;44751;52.236;5.178;2022-10-26T03:24:04;101114.66;;;10.95;100.00
58975;BME280;44751;52.236;5.178;2022-10-26T03:26:30;101114.31;;;10.98;100.00
58975;BME280;44751;52.236;5.178;2022-10-26T03:28:57;101117.00;;;10.98;100.00
58975;BME280;44751;52.236;5.178;2022-10-26T03:31:23;101120.34;;;11.08;100.00
58975;BME280;44751;52.236;5.178;2022-10-26T03:33:50;101113.97;;;11.01;100.00
58975;BME280;44751;52.236;5.178;2022-10-26T03:36:16;101120.69;;;11.05;100.00
58975;BME280;44751;52.236;5.178;2022-10-26T03:38:43;101117.81;;;11.07;100.00
58975;BME280;44751;52.236;5.178;2022-10-26T03:41:13;101111.41;;;11.08;100.00
58975;BME280;44751;52.236;5.178;2022-10-26T03:43:40;101100.59;;;11.08;100.00
58975;BME280;44751;52.236;5.178;2022-10-26T03:46:06;101101.97;;;11.04;100.00
58975;BME280;44751;52.236;5.178;2022-10-26T03:48:32;101101.41;;;11.17;100.00
58975;BME280;44751;52.236;5.178;2022-10-26T03:50:59;101102.63;;;11.14;100.00
58975;BME280;44751;52.236;5.178;2022-10-26T03:53:28;101104.31;;;11.07;100.00
58975;BME280;44751;52.236;5.178;2022-10-26T03:55:55;101098.88;;;11.15;100.00
58975;BME280;44751;52.236;5.178;2022-10-26T03:58:21;101101.81;;;11.05;100.00
58975;BME280;44751;52.236;5.178;2022-10-26T04:00:48;101103.00;;;11.03;100.00
58975;BME280;44751;52.236;5.178;2022-10-26T04:03:15;101108.34;;;11.11;100.00
58975;BME280;44751;52.236;5.178;2022-10-26T04:05:41;101100.25;;;11.11;100.00
58975;BME280;44751;52.236;5.178;2022-10-26T04:08:12;101099.75;;;11.16;100.00
58975;BME280;44751;52.236;5.178;2022-10-26T04:10:39;101089.75;;;11.16;100.00
58975;BME280;44751;52.236;5.178;2022-10-26T04:13:05;101104.41;;;11.22;100.00
58975;BME280;44751;52.236;5.178;2022-10-26T04:15:34;101098.53;;;11.18;100.00
58975;BME280;44751;52.236;5.178;2022-10-26T04:18:04;101094.69;;;11.13;100.00
58975;BME280;44751;52.236;5.178;2022-10-26T04:20:32;101096.19;;;11.15;100.00
58975;BME280;44751;52.236;5.178;2022-10-26T04:23:00;101101.25;;;11.18;100.00
58975;BME280;44751;52.236;5.178;2022-10-26T04:25:28;101100.34;;;11.26;100.00
58975;BME280;44751;52.236;5.178;2022-10-26T04:27:55;101089.41;;;11.19;100.00
58975;BME280;44751;52.236;5.178;2022-10-26T04:30:25;101097.03;;;11.16;100.00
58975;BME280;44751;52.236;5.178;2022-10-26T04:32:51;101094.97;;;11.18;100.00
58975;BME280;44751;52.236;5.178;2022-10-26T04:35:18;101093.78;;;11.20;100.00
58975;BME280;44751;52.236;5.178;2022-10-26T04:37:44;101087.06;;;11.16;100.00
58975;BME280;44751;52.236;5.178;2022-10-26T04:40:11;101089.06;;;11.22;100.00
58975;BME280;44751;52.236;5.178;2022-10-26T04:42:43;101080.28;;;11.20;100.00
58975;BME280;44751;52.236;5.178;2022-10-26T04:45:11;101083.09;;;11.27;100.00
58975;BME280;44751;52.236;5.178;2022-10-26T04:47:38;101084.44;;;11.31;100.00
58975;BME280;44751;52.236;5.178;2022-10-26T04:50:05;101075.84;;;11.28;100.00
58975;BME280;44751;52.236;5.178;2022-10-26T04:52:35;101080.78;;;11.24;100.00
58975;BME280;44751;52.236;5.178;2022-10-26T04:55:03;101084.81;;;11.28;100.00
58975;BME280;44751;52.236;5.178;2022-10-26T04:57:33;101079.75;;;11.25;100.00
58975;BME280;44751;52.236;5.178;2022-10-26T05:00:01;101068.69;;;11.11;100.00
58975;BME280;44751;52.236;5.178;2022-10-26T05:02:28;101090.00;;;11.30;100.00
58975;BME280;44751;52.236;5.178;2022-10-26T05:04:54;101087.00;;;11.24;100.00
58975;BME280;44751;52.236;5.178;2022-10-26T05:07:21;101090.84;;;11.30;100.00
58975;BME280;44751;52.236;5.178;2022-10-26T05:09:47;101089.66;;;11.33;100.00
58975;BME280;44751;52.236;5.178;2022-10-26T05:12:14;101087.50;;;11.28;100.00
58975;BME280;44751;52.236;5.178;2022-10-26T05:14:40;101096.25;;;11.30;100.00
58975;BME280;44751;52.236;5.178;2022-10-26T05:17:07;101085.09;;;11.33;100.00
58975;BME280;44751;52.236;5.178;2022-10-26T05:19:36;101082.69;;;11.39;100.00
58975;BME280;44751;52.236;5.178;2022-10-26T05:22:02;101095.22;;;11.31;100.00
58975;BME280;44751;52.236;5.178;2022-10-26T05:24:29;101079.75;;;11.25;100.00
58975;BME280;44751;52.236;5.178;2022-10-26T05:26:55;101087.31;;;11.30;100.00
58975;BME280;44751;52.236;5.178;2022-10-26T05:29:22;101085.69;;;11.20;100.00
58975;BME280;44751;52.236;5.178;2022-10-26T05:31:48;101080.78;;;11.24;100.00
58975;BME280;44751;52.236;5.178;2022-10-26T05:34:14;101090.50;;;11.33;100.00
58975;BME280;44751;52.236;5.178;2022-10-26T05:36:41;101088.28;;;11.37;100.00
58975;BME280;44751;52.236;5.178;2022-10-26T05:39:07;101083.78;;;11.29;100.00
58975;BME280;44751;52.236;5.178;2022-10-26T05:41:34;101077.69;;;11.27;100.00
58975;BME280;44751;52.236;5.178;2022-10-26T05:44:00;101088.66;;;11.34;100.00
58975;BME280;44751;52.236;5.178;2022-10-26T05:46:30;101072.94;;;11.38;100.00
58975;BME280;44751;52.236;5.178;2022-10-26T05:48:56;101085.06;;;11.42;100.00
58975;BME280;44751;52.236;5.178;2022-10-26T05:51:22;101081.31;;;11.43;100.00
58975;BME280;44751;52.236;5.178;2022-10-26T05:53:50;101087.75;;;11.42;100.00
58975;BME280;44751;52.236;5.178;2022-10-26T05:56:19;101095.69;;;11.43;100.00
58975;BME280;44751;52.236;5.178;2022-10-26T05:58:49;101088.53;;;11.51;100.00
58975;BME280;44751;52.236;5.178;2022-10-26T06:01:35;101086.66;;;11.51;100.00
58975;BME280;44751;52.236;5.178;2022-10-26T06:04:21;101089.94;;;11.46;100.00
58975;BME280;44751;52.236;5.178;2022-10-26T06:06:53;101090.88;;;11.54;100.00
58975;BME280;44751;52.236;5.178;2022-10-26T06:09:20;101097.78;;;11.56;100.00
58975;BME280;44751;52.236;5.178;2022-10-26T06:11:49;101099.34;;;11.51;100.00
58975;BME280;44751;52.236;5.178;2022-10-26T06:14:16;101103.06;;;11.49;100.00
58975;BME280;44751;52.236;5.178;2022-10-26T06:17:11;101110.16;;;11.51;100.00
58975;BME280;44751;52.236;5.178;2022-10-26T06:25:39;101106.38;;;11.36;100.00
58975;BME280;44751;52.236;5.178;2022-10-26T06:28:32;101110.22;;;11.42;100.00
58975;BME280;44751;52.236;5.178;2022-10-26T06:31:01;101104.31;;;11.39;100.00
58975;BME280;44751;52.236;5.178;2022-10-26T06:33:33;101106.22;;;11.30;100.00
58975;BME280;44751;52.236;5.178;2022-10-26T06:38:33;101103.34;;;11.31;100.00
58975;BME280;44751;52.236;5.178;2022-10-26T06:41:00;101102.81;;;11.36;100.00
58975;BME280;44751;52.236;5.178;2022-10-26T06:43:30;101097.41;;;11.36;100.00
58975;BME280;44751;52.236;5.178;2022-10-26T06:46:13;101103.50;;;11.30;100.00
58975;BME280;44751;52.236;5.178;2022-10-26T06:49:07;101105.34;;;11.38;100.00
58975;BME280;44751;52.236;5.178;2022-10-26T06:51:58;101111.25;;;11.33;100.00
58975;BME280;44751;52.236;5.178;2022-10-26T06:54:30;101109.81;;;11.22;100.00
58975;BME280;44751;52.236;5.178;2022-10-26T06:57:01;101114.75;;;11.18;100.00
58975;BME280;44751;52.236;5.178;2022-10-26T06:59:37;101101.75;;;11.14;100.00
58975;BME280;44751;52.236;5.178;2022-10-26T07:02:08;101097.84;;;11.16;100.00
58975;BME280;44751;52.236;5.178;2022-10-26T07:04:35;101106.25;;;11.21;100.00
58975;BME280;44751;52.236;5.178;2022-10-26T07:07:01;101100.28;;;11.34;100.00
58975;BME280;44751;52.236;5.178;2022-10-26T07:09:28;101102.81;;;11.36;100.00
58975;BME280;44751;52.236;5.178;2022-10-26T07:11:54;101112.91;;;11.42;100.00
58975;BME280;44751;52.236;5.178;2022-10-26T07:14:21;101104.66;;;11.35;100.00
58975;BME280;44751;52.236;5.178;2022-10-26T07:16:55;101114.75;;;11.42;100.00
58975;BME280;44751;52.236;5.178;2022-10-26T07:19:22;101110.75;;;11.38;100.00
58975;BME280;44751;52.236;5.178;2022-10-26T07:21:48;101112.91;;;11.42;100.00
58975;BME280;44751;52.236;5.178;2022-10-26T07:24:17;101111.91;;;11.43;100.00
58975;BME280;44751;52.236;5.178;2022-10-26T07:26:44;101112.06;;;11.42;100.00
58975;BME280;44751;52.236;5.178;2022-10-26T07:29:11;101125.22;;;11.45;100.00
58975;BME280;44751;52.236;5.178;2022-10-26T07:31:38;101125.56;;;11.42;100.00
58975;BME280;44751;52.236;5.178;2022-10-26T07:34:04;101123.34;;;11.45;100.00
58975;BME280;44751;52.236;5.178;2022-10-26T07:36:31;101121.66;;;11.44;100.00
58975;BME280;44751;52.236;5.178;2022-10-26T07:38:57;101125.06;;;11.46;100.00
58975;BME280;44751;52.236;5.178;2022-10-26T07:41:29;101120.78;;;11.52;100.00
58975;BME280;44751;52.236;5.178;2022-10-26T07:43:55;101131.00;;;11.65;100.00
58975;BME280;44751;52.236;5.178;2022-10-26T07:46:22;101132.94;;;11.80;100.00
58975;BME280;44751;52.236;5.178;2022-10-26T07:48:49;101127.44;;;11.88;100.00
58975;BME280;44751;52.236;5.178;2022-10-26T07:51:16;101120.47;;;11.94;100.00
58975;BME280;44751;52.236;5.178;2022-10-26T07:53:50;101136.53;;;11.95;100.00
58975;BME280;44751;52.236;5.178;2022-10-26T07:56:16;101150.81;;;12.04;100.00
58975;BME280;44751;52.236;5.178;2022-10-26T07:58:43;101165.19;;;12.05;100.00
58975;BME280;44751;52.236;5.178;2022-10-26T08:01:12;101160.50;;;12.22;100.00
58975;BME280;44751;52.236;5.178;2022-10-26T08:03:40;101161.06;;;12.32;100.00
58975;BME280;44751;52.236;5.178;2022-10-26T08:06:06;101151.47;;;12.45;100.00
58975;BME280;44751;52.236;5.178;2022-10-26T08:08:34;101146.03;;;12.53;100.00
58975;BME280;44751;52.236;5.178;2022-10-26T08:11:02;101151.13;;;12.63;100.00
58975;BME280;44751;52.236;5.178;2022-10-26T08:13:28;101155.81;;;12.69;100.00
58975;BME280;44751;52.236;5.178;2022-10-26T08:16:01;101161.69;;;12.73;100.00
58975;BME280;44751;52.236;5.178;2022-10-26T08:18:27;101161.22;;;12.84;100.00
58975;BME280;44751;52.236;5.178;2022-10-26T08:20:54;101160.13;;;12.94;100.00
58975;BME280;44751;52.236;5.178;2022-10-26T08:23:21;101173.28;;;12.97;100.00
58975;BME280;44751;52.236;5.178;2022-10-26T08:25:47;101166.56;;;13.08;100.00
58975;BME280;44751;52.236;5.178;2022-10-26T08:28:14;101164.00;;;13.21;100.00
58975;BME280;44751;52.236;5.178;2022-10-26T08:30:40;101179.31;;;13.29;100.00
58975;BME280;44751;52.236;5.178;2022-10-26T08:33:08;101170.78;;;13.47;100.00
58975;BME280;44751;52.236;5.178;2022-10-26T08:35:36;101186.31;;;13.53;100.00
58975;BME280;44751;52.236;5.178;2022-10-26T08:38:02;101190.22;;;13.66;100.00
58975;BME280;44751;52.236;5.178;2022-10-26T08:40:35;101201.78;;;13.75;100.00
58975;BME280;44751;52.236;5.178;2022-10-26T08:43:10;101193.84;;;13.73;100.00
58975;BME280;44751;52.236;5.178;2022-10-26T08:45:43;101199.31;;;13.80;100.00
58975;BME280;44751;52.236;5.178;2022-10-26T08:48:15;101192.66;;;13.82;100.00
58975;BME280;44751;52.236;5.178;2022-10-26T08:50:50;101196.56;;;13.95;100.00
58975;BME280;44751;52.236;5.178;2022-10-26T08:53:28;101193.66;;;13.97;100.00
58975;BME280;44751;52.236;5.178;2022-10-26T08:56:13;101193.19;;;14.15;100.00
58975;BME280;44751;52.236;5.178;2022-10-26T08:58:50;101178.16;;;14.12;100.00
58975;BME280;44751;52.236;5.178;2022-10-26T09:01:19;101178.84;;;13.99;100.00
58975;BME280;44751;52.236;5.178;2022-10-26T09:03:45;101186.28;;;14.12;100.00
58975;BME280;44751;52.236;5.178;2022-10-26T09:08:58;101179.94;;;14.27;100.00
58975;BME280;44751;52.236;5.178;2022-10-26T09:11:43;101176.28;;;14.41;100.00
58975;BME280;44751;52.236;5.178;2022-10-26T09:14:17;101174.13;;;14.58;100.00
58975;BME280;44751;52.236;5.178;2022-10-26T09:17:02;101168.16;;;14.70;100.00
58975;BME280;44751;52.236;5.178;2022-10-26T09:19:36;101180.63;;;14.93;100.00
58975;BME280;44751;52.236;5.178;2022-10-26T09:25:09;101190.41;;;15.29;100.00
58975;BME280;44751;52.236;5.178;2022-10-26T09:27:42;101192.09;;;15.23;100.00
58975;BME280;44751;52.236;5.178;2022-10-26T09:30:18;101193.59;;;15.33;100.00
58975;BME280;44751;52.236;5.178;2022-10-26T09:32:52;101202.34;;;15.28;100.00
58975;BME280;44751;52.236;5.178;2022-10-26T09:35:27;101199.59;;;15.21;100.00
58975;BME280;44751;52.236;5.178;2022-10-26T09:38:03;101212.16;;;15.29;100.00
58975;BME280;44751;52.236;5.178;2022-10-26T09:43:19;101213.50;;;15.47;100.00
58975;BME280;44751;52.236;5.178;2022-10-26T09:45:50;101203.06;;;15.57;100.00
58975;BME280;44751;52.236;5.178;2022-10-26T09:50:58;101222.38;;;15.69;100.00
58975;BME280;44751;52.236;5.178;2022-10-26T09:53:25;101228.22;;;15.73;100.00
58975;BME280;44751;52.236;5.178;2022-10-26T09:56:10;101228.47;;;15.78;100.00
58975;BME280;44751;52.236;5.178;2022-10-26T09:58:42;101240.22;;;15.92;100.00
58975;BME280;44751;52.236;5.178;2022-10-26T10:01:20;101243.75;;;15.86;100.00
58975;BME280;44751;52.236;5.178;2022-10-26T10:03:46;101240.00;;;15.94;100.00
58975;BME280;44751;52.236;5.178;2022-10-26T10:06:14;101246.28;;;15.94;100.00
58975;BME280;44751;52.236;5.178;2022-10-26T10:08:41;101241.91;;;15.86;100.00
58975;BME280;44751;52.236;5.178;2022-10-26T10:11:12;101244.06;;;16.05;100.00
58975;BME280;44751;52.236;5.178;2022-10-26T10:13:45;101246.78;;;16.11;100.00
58975;BME280;44751;52.236;5.178;2022-10-26T10:16:19;101254.75;;;16.20;100.00
58975;BME280;44751;52.236;5.178;2022-10-26T10:18:59;101263.53;;;16.22;100.00
58975;BME280;44751;52.236;5.178;2022-10-26T10:21:36;101260.00;;;16.28;100.00
58975;BME280;44751;52.236;5.178;2022-10-26T10:24:27;101249.72;;;16.23;100.00
58975;BME280;44751;52.236;5.178;2022-10-26T10:27:04;101251.63;;;16.23;100.00
58975;BME280;44751;52.236;5.178;2022-10-26T10:29:39;101271.53;;;16.37;100.00
58975;BME280;44751;52.236;5.178;2022-10-26T10:32:14;101271.53;;;16.37;100.00
58975;BME280;44751;52.236;5.178;2022-10-26T10:34:44;101278.25;;;16.55;100.00
58975;BME280;44751;52.236;5.178;2022-10-26T10:37:30;101279.09;;;16.55;100.00
58975;BME280;44751;52.236;5.178;2022-10-26T10:39:59;101281.59;;;16.50;100.00
58975;BME280;44751;52.236;5.178;2022-10-26T10:42:34;101289.56;;;16.45;100.00
58975;BME280;44751;52.236;5.178;2022-10-26T10:45:03;101306.31;;;16.42;100.00
58975;BME280;44751;52.236;5.178;2022-10-26T10:47:34;101294.59;;;16.41;100.00
58975;BME280;44751;52.236;5.178;2022-10-26T10:50:17;101311.13;;;16.46;100.00
58975;BME280;44751;52.236;5.178;2022-10-26T10:52:45;101310.09;;;16.54;100.00
58975;BME280;44751;52.236;5.178;2022-10-26T10:58:10;101328.72;;;16.44;100.00
58975;BME280;44751;52.236;5.178;2022-10-26T11:00:43;101341.94;;;16.47;100.00
58975;BME280;44751;52.236;5.178;2022-10-26T11:06:04;101350.25;;;16.32;100.00
58975;BME280;44751;52.236;5.178;2022-10-26T11:08:54;101344.41;;;16.35;100.00
58975;BME280;44751;52.236;5.178;2022-10-26T11:11:41;101346.94;;;16.36;100.00
58975;BME280;44751;52.236;5.178;2022-10-26T11:14:15;101348.38;;;16.25;100.00
58975;BME280;44751;52.236;5.178;2022-10-26T11:16:50;101348.16;;;16.20;100.00
58975;BME280;44751;52.236;5.178;2022-10-26T11:19:33;101350.25;;;16.32;100.00
58975;BME280;44751;52.236;5.178;2022-10-26T11:22:04;101356.34;;;16.27;100.00
58975;BME280;44751;52.236;5.178;2022-10-26T11:24:44;101352.97;;;16.25;100.00
58975;BME280;44751;52.236;5.178;2022-10-26T11:27:38;101349.84;;;16.35;100.00
58975;BME280;44751;52.236;5.178;2022-10-26T11:30:23;101367.25;;;16.27;100.00
58975;BME280;44751;52.236;5.178;2022-10-26T11:35:29;101367.66;;;16.31;100.00
58975;BME280;44751;52.236;5.178;2022-10-26T11:43:18;101358.72;;;16.64;100.00
58975;BME280;44751;52.236;5.178;2022-10-26T11:46:03;101364.16;;;16.64;100.00
58975;BME280;44751;52.236;5.178;2022-10-26T11:51:01;101369.19;;;16.74;100.00
58975;BME280;44751;52.236;5.178;2022-10-26T11:53:37;101377.63;;;16.79;100.00
58975;BME280;44751;52.236;5.178;2022-10-26T11:56:12;101379.28;;;16.73;100.00
58975;BME280;44751;52.236;5.178;2022-10-26T11:58:44;101391.44;;;16.77;100.00
58975;BME280;44751;52.236;5.178;2022-10-26T12:01:12;101385.13;;;16.70;100.00
58975;BME280;44751;52.236;5.178;2022-10-26T12:03:45;101395.44;;;16.75;100.00
58975;BME280;44751;52.236;5.178;2022-10-26T12:06:13;101393.97;;;16.86;100.00
58975;BME280;44751;52.236;5.178;2022-10-26T12:08:47;101387.47;;;16.80;100.00
58975;BME280;44751;52.236;5.178;2022-10-26T12:11:24;101380.94;;;16.81;100.00
58975;BME280;44751;52.236;5.178;2022-10-26T12:17:12;101385.16;;;17.04;100.00
58975;BME280;44751;52.236;5.178;2022-10-26T12:20:12;101385.00;;;17.12;100.00
58975;BME280;44751;52.236;5.178;2022-10-26T12:22:46;101390.41;;;16.99;100.00
58975;BME280;44751;52.236;5.178;2022-10-26T12:35:31;101404.72;;;17.21;100.00
58975;BME280;44751;52.236;5.178;2022-10-26T12:38:01;101407.84;;;17.11;100.00
58975;BME280;44751;52.236;5.178;2022-10-26T12:40:38;101400.09;;;17.08;100.00
58975;BME280;44751;52.236;5.178;2022-10-26T12:45:40;101408.47;;;17.07;100.00
58975;BME280;44751;52.236;5.178;2022-10-26T12:48:19;101398.59;;;17.19;100.00
58975;BME280;44751;52.236;5.178;2022-10-26T12:50:51;101397.56;;;17.13;100.00
58975;BME280;44751;52.236;5.178;2022-10-26T12:53:19;101406.16;;;17.10;100.00
58975;BME280;44751;52.236;5.178;2022-10-26T12:58:34;101404.88;;;17.13;100.00
58975;BME280;44751;52.236;5.178;2022-10-26T13:05:02;101398.63;;;17.06;100.00
58975;BME280;44751;52.236;5.178;2022-10-26T13:07:16;101407.41;;;17.14;100.00
58975;BME280;44751;52.236;5.178;2022-10-26T13:09:52;101414.13;;;17.19;100.00
58975;BME280;44751;52.236;5.178;2022-10-26T13:12:22;101408.03;;;17.23;100.00
58975;BME280;44751;52.236;5.178;2022-10-26T13:15:37;101410.53;;;17.38;100.00
58975;BME280;44751;52.236;5.178;2022-10-26T13:18:06;101420.22;;;17.48;100.00
58975;BME280;44751;52.236;5.178;2022-10-26T13:20:35;101424.38;;;17.57;100.00
58975;BME280;44751;52.236;5.178;2022-10-26T13:23:15;101425.00;;;17.52;100.00
58975;BME280;44751;52.236;5.178;2022-10-26T13:26:00;101431.13;;;17.48;100.00
58975;BME280;44751;52.236;5.178;2022-10-26T13:33:55;101436.56;;;17.48;100.00
58975;BME280;44751;52.236;5.178;2022-10-26T13:39:09;101434.22;;;17.65;100.00
58975;BME280;44751;52.236;5.178;2022-10-26T13:41:41;101429.19;;;17.75;100.00
58975;BME280;44751;52.236;5.178;2022-10-26T13:44:22;101433.56;;;17.76;100.00
58975;BME280;44751;52.236;5.178;2022-10-26T13:46:54;101429.38;;;17.80;100.00
58975;BME280;44751;52.236;5.178;2022-10-26T13:49:30;101440.91;;;17.89;100.00
58975;BME280;44751;52.236;5.178;2022-10-26T13:52:01;101432.53;;;17.77;100.00
58975;BME280;44751;52.236;5.178;2022-10-26T13:54:31;101438.63;;;17.73;100.00
58975;BME280;44751;52.236;5.178;2022-10-26T13:59:45;101446.78;;;17.86;100.00
58975;BME280;44751;52.236;5.178;2022-10-26T14:02:24;101445.53;;;17.82;100.00
58975;BME280;44751;52.236;5.178;2022-10-26T14:04:53;101458.56;;;17.73;100.00
58975;BME280;44751;52.236;5.178;2022-10-26T14:07:32;101458.56;;;17.73;100.00
58975;BME280;44751;52.236;5.178;2022-10-26T14:09:59;101467.56;;;17.80;100.00
58975;BME280;44751;52.236;5.178;2022-10-26T14:12:26;101460.88;;;17.90;100.00
58975;BME280;44751;52.236;5.178;2022-10-26T14:15:04;101479.97;;;17.76;100.00
58975;BME280;44751;52.236;5.178;2022-10-26T14:17:34;101478.09;;;17.77;100.00
58975;BME280;44751;52.236;5.178;2022-10-26T14:20:02;101479.97;;;17.70;100.00
58975;BME280;44751;52.236;5.178;2022-10-26T14:22:29;101481.25;;;17.67;100.00
58975;BME280;44751;52.236;5.178;2022-10-26T14:24:58;101491.94;;;17.75;100.00
58975;BME280;44751;52.236;5.178;2022-10-26T14:27:31;101498.66;;;17.73;100.00
58975;BME280;44751;52.236;5.178;2022-10-26T14:29:58;101494.88;;;17.74;100.00
58975;BME280;44751;52.236;5.178;2022-10-26T14:32:30;101496.97;;;17.85;100.00
58975;BME280;44751;52.236;5.178;2022-10-26T14:35:15;101500.75;;;17.84;100.00
58975;BME280;44751;52.236;5.178;2022-10-26T14:37:45;101502.03;;;17.81;100.00
58975;BME280;44751;52.236;5.178;2022-10-26T14:40:22;101506.66;;;17.74;100.00